Terminal Aerodrome Forecast
Issued by NWS

Home | Current Version | Previous Version | Text Only | Print | Product List | Glossary On
Versions: 1 2 3 4 5 6 7 8 9 10 11 12 13 14 15
208
FTUS45 KRIW 231120
TAFJAC
TAF
KJAC 231120Z 2312/2412 VRB05KT 6SM -SN SCT010 BKN025
      TEMPO 2312/2315 BKN010
     FM231900 01007KT 2SM -SN SCT012 OVC017
     FM240300 01010G15KT 4SM -SN OVC030
     FM240700 01010KT P6SM VCSH SCT025 BKN040
      AMD LTD TO CLD VIS AND WIND=

USA.gov is the U.S. government's official web portal to all federal, state and local government web resources and services.